Time;durP1;ratioP1;P1;durP2;ratioP2;P2;SDS_P1;SDS_P2;PMS_P1;PMS_P2;Temp;Humidity;BMP_temperature;BMP_pressure;BME280_temperature;BME280_humidity;BME280_pressure;Samples;Min_cycle;Max_cycle;Signal;HPM_P1;HPM_P2
2023/04/02 00:04:25;;;;;;;1999.90;999.90;;;9.20;99.90;;;;;;6723552;88;20208;-76
2023/04/02 00:14:32;;;;;;;1999.90;999.90;;;9.20;99.90;;;;;;6701410;88;20178;-76
2023/04/02 00:24:33;;;;;;;1999.90;999.90;;;9.20;99.90;;;;;;6696423;88;20382;-76
2023/04/02 00:34:36;;;;;;;1999.90;999.90;;;9.20;99.90;;;;;;6703396;88;20195;-76
2023/04/02 00:44:42;;;;;;;1999.90;999.90;;;9.30;99.90;;;;;;6693059;88;20237;-76
2023/04/02 00:54:49;;;;;;;1999.90;999.90;;;9.40;99.90;;;;;;6704647;88;20188;-76
2023/04/02 01:05:21;;;;;;;1999.90;999.90;;;9.30;99.90;;;;;;6699043;88;20219;-76
2023/04/02 01:15:30;;;;;;;1999.90;999.90;;;9.30;99.90;;;;;;6695342;88;20190;-76
2023/04/02 01:25:44;;;;;;;1999.90;999.90;;;9.30;99.90;;;;;;6699137;88;20186;-77
2023/04/02 01:35:50;;;;;;;1999.90;999.90;;;9.20;99.90;;;;;;6705321;88;20273;-76
2023/04/02 01:45:51;;;;;;;;;;;9.20;99.90;;;;;;6704869;88;20715;-77
2023/04/02 01:55:58;;;;;;;1999.90;999.90;;;9.10;99.90;;;;;;6701062;88;20074;-76
2023/04/02 02:06:00;;;;;;;1999.90;999.90;;;9.30;99.90;;;;;;6702605;88;20170;-76
2023/04/02 02:16:03;;;;;;;1999.90;999.90;;;9.20;99.90;;;;;;6706937;88;20381;-76
2023/04/02 02:26:05;;;;;;;1999.90;999.90;;;9.30;99.90;;;;;;6702351;88;20203;-76
2023/04/02 02:36:21;;;;;;;1999.90;999.90;;;9.30;99.90;;;;;;6697522;88;20187;-76
2023/04/02 02:46:24;;;;;;;1999.90;999.90;;;9.30;99.90;;;;;;6710580;88;20243;-77
2023/04/02 02:56:26;;;;;;;1999.90;999.90;;;9.50;99.90;;;;;;6694035;88;20562;-76
2023/04/02 03:06:27;;;;;;;1999.90;999.90;;;9.40;99.90;;;;;;6705462;88;20833;-76
2023/04/02 03:16:38;;;;;;;1999.90;999.90;;;9.40;99.90;;;;;;6697302;88;20290;-76
2023/04/02 03:26:47;;;;;;;1999.90;999.90;;;9.60;99.90;;;;;;6712313;88;20480;-76
2023/04/02 03:36:59;;;;;;;1999.90;999.90;;;9.50;99.90;;;;;;6709384;88;20251;-76
2023/04/02 03:47:09;;;;;;;1999.90;999.90;;;9.50;99.90;;;;;;6707380;88;20336;-76
2023/04/02 03:57:32;;;;;;;1999.90;999.90;;;9.50;99.90;;;;;;6712382;88;20202;-77
2023/04/02 04:07:38;;;;;;;1999.90;999.90;;;9.30;99.90;;;;;;6697722;88;20218;-76
2023/04/02 04:18:00;;;;;;;1999.90;999.90;;;9.30;99.90;;;;;;6708744;88;20182;-76
2023/04/02 04:28:23;;;;;;;1999.90;999.90;;;9.20;99.90;;;;;;6697809;88;20210;-76
2023/04/02 04:38:39;;;;;;;1999.90;999.90;;;8.90;99.90;;;;;;6705167;88;20182;-76
2023/04/02 04:49:01;;;;;;;1999.90;999.90;;;8.70;99.90;;;;;;6694268;88;20213;-76
2023/04/02 04:59:11;;;;;;;1999.90;999.90;;;8.50;99.90;;;;;;6700121;88;20253;-76
2023/04/02 05:09:16;;;;;;;1999.90;999.90;;;8.40;99.90;;;;;;6701706;88;20212;-76
2023/04/02 05:19:29;;;;;;;1999.90;999.90;;;8.40;99.90;;;;;;6700223;88;20307;-76
2023/04/02 05:29:36;;;;;;;1999.90;999.90;;;8.30;99.90;;;;;;6703825;88;20230;-76
2023/04/02 05:39:36;;;;;;;1999.90;999.90;;;8.20;99.90;;;;;;6708151;88;20175;-75
2023/04/02 05:49:52;;;;;;;1999.90;999.90;;;8.00;99.90;;;;;;6698822;88;20661;-76
2023/04/02 05:59:56;;;;;;;1999.90;999.90;;;8.00;99.90;;;;;;6700048;88;20735;-76
2023/04/02 06:10:07;;;;;;;1999.90;999.90;;;7.90;99.90;;;;;;6702839;88;20190;-76
2023/04/02 06:20:16;;;;;;;1999.90;999.90;;;7.80;99.90;;;;;;6693460;88;20266;-75
2023/04/02 06:30:40;;;;;;;1999.90;999.90;;;7.80;99.90;;;;;;6700341;88;20225;-75
2023/04/02 06:40:55;;;;;;;1999.90;999.90;;;7.80;99.90;;;;;;6691215;88;21232;-76
2023/04/02 06:51:07;;;;;;;1999.90;999.90;;;7.70;99.90;;;;;;6692102;88;20186;-77
2023/04/02 07:01:14;;;;;;;1999.90;999.90;;;7.60;99.90;;;;;;6692261;88;20206;-77
2023/04/02 07:11:17;;;;;;;1999.90;999.90;;;7.70;99.90;;;;;;6692566;88;20202;-78
2023/04/02 07:32:20;;;;;;;1999.90;999.90;;;7.40;99.90;;;;;;6630711;89;20261;-82
2023/04/02 07:42:20;;;;;;;1999.90;999.90;;;7.40;99.90;;;;;;6626748;89;20244;-80
2023/04/02 07:52:21;;;;;;;1999.90;999.90;;;7.40;99.90;;;;;;6622762;88;20198;-78
2023/04/02 08:02:22;;;;;;;1999.90;999.90;;;7.50;99.90;;;;;;6615885;88;20274;-78
2023/04/02 08:12:23;;;;;;;1999.90;999.90;;;7.50;99.90;;;;;;6611773;89;20193;-80
2023/04/02 08:22:23;;;;;;;1999.90;999.90;;;7.60;99.90;;;;;;6609435;89;20195;-79
2023/04/02 08:32:25;;;;;;;1999.90;999.90;;;7.60;99.90;;;;;;6629004;89;20809;-79
2023/04/02 08:42:39;;;;;;;1999.90;999.90;;;7.50;99.90;;;;;;6627515;89;20188;-81
2023/04/02 08:52:40;;;;;;;1999.90;999.90;;;7.70;99.90;;;;;;6611004;89;20252;-78
2023/04/02 09:02:46;;;;;;;1999.90;999.90;;;7.70;99.90;;;;;;6604998;89;20221;-78
2023/04/02 09:12:51;;;;;;;1999.90;999.90;;;7.70;99.90;;;;;;6601692;89;20254;-77
2023/04/02 09:22:54;;;;;;;1999.90;999.90;;;7.70;99.90;;;;;;6597678;89;20744;-76
2023/04/02 09:33:06;;;;;;;1999.90;999.90;;;7.60;99.90;;;;;;6599680;89;20238;-79
2023/04/02 09:43:13;;;;;;;1999.90;999.90;;;7.60;99.90;;;;;;6599294;89;20209;-77
2023/04/02 09:53:30;;;;;;;1999.90;999.90;;;7.60;99.90;;;;;;6605472;89;20194;-77
2023/04/02 10:03:31;;;;;;;1999.90;999.90;;;7.80;99.90;;;;;;6605398;88;20263;-77
2023/04/02 10:13:53;;;;;;;1999.90;999.90;;;7.70;99.90;;;;;;6614090;88;20222;-78
2023/04/02 10:23:54;;;;;;;1999.90;999.90;;;7.90;99.90;;;;;;6603507;88;20330;-78
2023/04/02 10:34:03;;;;;;;1999.90;999.90;;;8.00;99.90;;;;;;6620931;88;20199;-78
2023/04/02 10:44:13;;;;;;;1999.90;999.90;;;8.10;99.90;;;;;;6618787;89;20166;-77
2023/04/02 10:54:36;;;;;;;1999.90;999.90;;;8.10;99.90;;;;;;6619291;89;20247;-78
2023/04/02 11:04:44;;;;;;;1999.90;999.90;;;7.90;99.90;;;;;;6640548;89;20310;-79
2023/04/02 11:14:44;;;;;;;1999.90;999.90;;;8.00;99.90;;;;;;6620198;89;20207;-75
2023/04/02 11:24:56;;;;;;;1999.90;999.90;;;8.00;99.90;;;;;;6620226;88;20183;-77
2023/04/02 11:35:00;;;;;;;1999.90;999.90;;;8.20;99.90;;;;;;6618608;89;20221;-78
2023/04/02 11:45:26;;;;;;;1999.90;999.90;;;8.50;99.90;;;;;;6632696;89;20225;-76
2023/04/02 11:55:32;;;;;;;1999.90;999.90;;;9.00;99.90;;;;;;6617359;89;20210;-75
2023/04/02 12:05:41;;;;;;;1999.90;999.90;;;9.30;99.90;;;;;;6613500;88;20520;-79
2023/04/02 12:15:46;;;;;;;1999.90;999.90;;;9.20;99.90;;;;;;6621498;89;20201;-79
2023/04/02 12:25:59;;;;;;;1999.90;999.90;;;9.10;99.90;;;;;;6618441;88;20642;-77
2023/04/02 12:36:01;;;;;;;1999.90;999.90;;;8.90;99.90;;;;;;6614275;88;20605;-79
2023/04/02 12:46:05;;;;;;;1999.90;999.90;;;8.90;99.90;;;;;;6621877;89;20166;-80
2023/04/02 12:56:17;;;;;;;1999.90;999.90;;;8.90;99.90;;;;;;6621963;89;20187;-77
2023/04/02 13:06:23;;;;;;;1999.90;999.90;;;8.90;99.90;;;;;;6624424;88;20207;-76
2023/04/02 13:26:28;;;;;;;1999.90;999.90;;;8.70;99.90;;;;;;6631565;88;20273;-78
2023/04/02 13:36:31;;;;;;;1999.90;999.90;;;8.90;99.90;;;;;;6632953;88;20692;-77
2023/04/02 13:46:33;;;;;;;1999.90;999.90;;;9.00;99.90;;;;;;6621088;89;20246;-78
2023/04/02 13:56:35;;;;;;;1999.90;999.90;;;9.30;99.90;;;;;;6615079;89;20264;-77
2023/04/02 14:07:03;;;;;;;1999.90;999.90;;;9.00;99.90;;;;;;6618177;89;20191;-78
2023/04/02 14:17:23;;;;;;;1999.90;999.90;;;8.90;99.90;;;;;;6616536;89;20305;-78
2023/04/02 14:27:45;;;;;;;1999.90;999.90;;;8.90;99.90;;;;;;6646097;88;20205;-78
2023/04/02 14:38:09;;;;;;;1999.90;999.90;;;8.90;99.90;;;;;;6625459;89;20220;-78
2023/04/02 14:48:26;;;;;;;1999.90;999.90;;;8.60;99.90;;;;;;6617802;89;20215;-78
2023/04/02 14:58:35;;;;;;;1999.90;999.90;;;8.60;99.90;;;;;;6608140;89;20286;-77
2023/04/02 15:08:39;;;;;;;1999.90;999.90;;;8.70;99.90;;;;;;6619477;89;20191;-77
2023/04/02 15:18:40;;;;;;;1999.90;999.90;;;8.50;99.90;;;;;;6619025;89;20198;-77
2023/04/02 15:28:50;;;;;;;1999.90;999.90;;;8.40;99.90;;;;;;6614279;89;20316;-78
2023/04/02 15:39:11;;;;;;;1999.90;999.90;;;8.20;99.90;;;;;;6588451;90;20199;-79
2023/04/02 15:49:38;;;;;;;1999.90;999.90;;;8.20;99.90;;;;;;6589987;90;20242;-79
2023/04/02 15:59:48;;;;;;;1999.90;999.90;;;8.10;99.90;;;;;;6606799;90;20212;-78
2023/04/02 16:10:19;;;;;;;1999.90;999.90;;;8.00;99.90;;;;;;6643760;88;20340;-78
2023/04/02 16:20:32;;;;;;;1999.90;999.90;;;7.90;99.90;;;;;;6637552;89;21929;-77
2023/04/02 16:30:57;;;;;;;1999.90;999.90;;;7.80;99.90;;;;;;6643082;89;20222;-78
2023/04/02 16:41:10;;;;;;;1999.90;999.90;;;7.70;99.90;;;;;;6615150;89;20548;-78
2023/04/02 16:51:26;;;;;;;1999.90;999.90;;;7.60;99.90;;;;;;6608696;89;20196;-77
2023/04/02 17:01:40;;;;;;;1999.90;999.90;;;7.60;99.90;;;;;;6608833;88;20297;-77
2023/04/02 17:11:43;;;;;;;1999.90;999.90;;;7.50;99.90;;;;;;6604549;89;20617;-78
2023/04/02 17:21:47;;;;;;;1999.90;999.90;;;7.30;99.90;;;;;;6601077;89;20228;-79
2023/04/02 17:31:49;;;;;;;1999.90;999.90;;;7.30;99.90;;;;;;6607602;89;20184;-79
2023/04/02 17:42:00;;;;;;;1999.90;999.90;;;7.10;99.90;;;;;;6614915;89;20269;-80
2023/04/02 17:52:13;;;;;;;1999.90;999.90;;;6.90;99.90;;;;;;6608865;89;20213;-77
2023/04/02 18:02:37;;;;;;;1999.90;999.90;;;6.70;99.90;;;;;;6602328;88;20688;-77
2023/04/02 18:12:57;;;;;;;1999.90;999.90;;;6.60;99.90;;;;;;6608176;88;20736;-78
2023/04/02 18:23:04;;;;;;;1999.90;999.90;;;6.50;99.90;;;;;;6608377;88;20249;-78
2023/04/02 18:33:31;;;;;;;1999.90;999.90;;;6.30;99.90;;;;;;6612746;88;20835;-79
2023/04/02 18:43:49;;;;;;;1999.90;999.90;;;6.20;99.90;;;;;;6609323;88;20752;-79
2023/04/02 18:54:12;;;;;;;1999.90;999.90;;;6.10;99.90;;;;;;6617830;89;21017;-77
2023/04/02 19:04:24;;;;;;;1999.90;999.90;;;6.10;99.90;;;;;;6612860;89;20216;-77
2023/04/02 19:14:24;;;;;;;1999.90;999.90;;;6.40;99.90;;;;;;6617999;89;20213;-77
2023/04/02 19:24:40;;;;;;;1999.90;999.90;;;6.40;99.90;;;;;;6619737;88;20211;-77
2023/04/02 19:35:03;;;;;;;1999.90;999.90;;;6.40;99.90;;;;;;6622666;89;20183;-77
2023/04/02 19:45:05;;;;;;;1999.90;999.90;;;6.40;99.90;;;;;;6586948;89;20175;-77
2023/04/02 19:55:06;;;;;;;1999.90;999.90;;;6.40;99.90;;;;;;6621438;88;20197;-77
2023/04/02 20:05:07;;;;;;;1999.90;999.90;;;6.30;99.90;;;;;;6603629;88;20695;-77
2023/04/02 20:15:08;;;;;;;1999.90;999.90;;;6.40;99.90;;;;;;6633169;88;20230;-77
2023/04/02 20:25:08;;;;;;;1999.90;999.90;;;6.20;99.90;;;;;;6604759;88;20202;-77
2023/04/02 20:35:09;;;;;;;1999.90;999.90;;;6.30;99.90;;;;;;6637677;88;20776;-76
2023/04/02 20:45:10;;;;;;;1999.90;999.90;;;6.00;99.90;;;;;;6622343;88;20190;-76
2023/04/02 20:55:10;;;;;;;1999.90;999.90;;;6.00;99.90;;;;;;6602401;89;20602;-76
2023/04/02 21:05:11;;;;;;;1999.90;999.90;;;5.90;99.90;;;;;;6607076;89;20334;-77
2023/04/02 21:15:12;;;;;;;1999.90;999.90;;;5.90;99.90;;;;;;6602282;89;20810;-77
2023/04/02 21:25:13;;;;;;;1999.90;999.90;;;5.90;99.90;;;;;;6628089;88;20729;-77
2023/04/02 21:35:13;;;;;;;1999.90;999.90;;;5.80;99.90;;;;;;6639943;88;20206;-76
2023/04/02 21:45:14;;;;;;;1999.90;999.90;;;5.70;99.90;;;;;;6620326;88;20340;-77
2023/04/02 21:55:14;;;;;;;1999.90;999.90;;;5.70;99.90;;;;;;6667623;88;20498;-79
2023/04/02 22:05:15;;;;;;;1999.90;999.90;;;5.70;99.90;;;;;;6620917;88;20221;-76
2023/04/02 22:15:16;;;;;;;1999.90;999.90;;;5.60;99.90;;;;;;6614455;89;20509;-76
2023/04/02 22:25:16;;;;;;;1999.90;999.90;;;5.50;99.90;;;;;;6627351;88;20221;-76
2023/04/02 22:35:17;;;;;;;1999.90;999.90;;;5.20;99.90;;;;;;6687261;88;20175;-78
2023/04/02 22:45:20;;;;;;;1999.90;999.90;;;5.10;99.90;;;;;;6676463;88;20195;-78
2023/04/02 22:55:20;;;;;;;1999.90;999.90;;;4.80;99.90;;;;;;6664967;89;20273;-78
2023/04/02 23:05:21;;;;;;;1999.90;999.90;;;4.60;99.90;;;;;;6668246;89;21354;-76
2023/04/02 23:15:22;;;;;;;1999.90;999.90;;;4.80;99.90;;;;;;6674478;89;20195;-76
2023/04/02 23:25:23;;;;;;;1999.90;999.90;;;4.90;99.90;;;;;;6654791;89;20262;-77
2023/04/02 23:35:23;;;;;;;1999.90;999.90;;;4.90;99.90;;;;;;6635730;88;20692;-76
2023/04/02 23:45:24;;;;;;;1999.90;999.90;;;4.80;99.90;;;;;;6617127;89;20216;-77
2023/04/02 23:55:24;;;;;;;1999.90;999.90;;;4.80;99.90;;;;;;6654291;88;20207;-76
